Time;durP1;ratioP1;P1;durP2;ratioP2;P2;SDS_P1;SDS_P2;PMS_P1;PMS_P2;Temp;Humidity;BMP_temperature;BMP_pressure;BME280_temperature;BME280_humidity;BME280_pressure;Samples;Min_cycle;Max_cycle;Signal;HPM_P1;HPM_P2
2022/09/26 00:00:43;;;;;;;1.00;0.70;;;12.60;99.90;;;;;;5060264;28;20714;-82
2022/09/26 00:03:10;;;;;;;1.00;0.70;;;12.60;99.90;;;;;;5059855;28;20235;-82
2022/09/26 00:05:37;;;;;;;1.30;0.57;;;12.70;99.90;;;;;;5075345;28;20209;-83
2022/09/26 00:08:04;;;;;;;0.83;0.73;;;12.70;99.90;;;;;;5075137;28;20189;-82
2022/09/26 00:10:30;;;;;;;0.67;0.67;;;12.60;99.90;;;;;;5078958;28;20241;-83
2022/09/26 00:12:56;;;;;;;0.57;0.57;;;12.60;99.90;;;;;;5076249;28;20239;-83
2022/09/26 00:15:22;;;;;;;0.67;0.60;;;12.60;99.90;;;;;;5076963;28;21138;-83
2022/09/26 00:17:48;;;;;;;0.50;0.50;;;12.60;99.90;;;;;;5075391;28;20221;-83
2022/09/26 00:20:14;;;;;;;1.50;1.43;;;12.60;99.90;;;;;;5056717;28;20219;-83
2022/09/26 00:22:40;;;;;;;0.80;0.80;;;12.60;99.90;;;;;;5061332;28;20283;-82
2022/09/26 00:25:06;;;;;;;0.73;0.53;;;12.60;99.90;;;;;;5058087;28;20296;-84
2022/09/26 00:27:32;;;;;;;2.30;0.70;;;12.60;99.90;;;;;;5074815;28;20224;-83
2022/09/26 00:29:58;;;;;;;0.30;0.30;;;12.60;99.90;;;;;;5043386;28;20758;-83
2022/09/26 00:32:23;;;;;;;3.70;1.00;;;12.60;99.90;;;;;;5078534;28;20249;-82
2022/09/26 00:34:49;;;;;;;4.70;0.80;;;12.60;99.90;;;;;;5075768;28;20192;-83
2022/09/26 00:37:15;;;;;;;0.97;0.80;;;12.70;99.90;;;;;;5076357;28;20219;-82
2022/09/26 00:39:42;;;;;;;2.90;0.97;;;12.70;99.90;;;;;;5076822;28;20619;-82
2022/09/26 00:42:13;;;;;;;0.70;0.67;;;12.70;99.90;;;;;;5074247;28;20228;-83
2022/09/26 00:44:45;;;;;;;0.70;0.60;;;12.70;99.90;;;;;;5075101;28;20251;-82
2022/09/26 00:47:39;;;;;;;2.67;0.50;;;12.70;99.90;;;;;;5076010;28;20213;-84
2022/09/26 00:50:18;;;;;;;1.30;0.90;;;12.80;99.90;;;;;;5076391;28;20272;-82
2022/09/26 00:53:10;;;;;;;0.50;0.50;;;12.80;99.90;;;;;;5077181;28;20191;-81
2022/09/26 00:55:41;;;;;;;0.50;0.40;;;12.80;99.90;;;;;;5074520;28;20251;-83
2022/09/26 00:58:23;;;;;;;1.53;0.50;;;12.80;99.90;;;;;;5074296;28;20213;-81
2022/09/26 01:00:50;;;;;;;0.50;0.50;;;12.90;99.90;;;;;;5077273;28;20285;-83
2022/09/26 01:03:19;;;;;;;0.60;0.50;;;12.80;99.90;;;;;;5056180;28;20213;-83
2022/09/26 01:05:45;;;;;;;1.93;0.97;;;12.80;99.90;;;;;;5073776;28;20235;-84
2022/09/26 01:08:14;;;;;;;1.13;0.53;;;12.80;99.90;;;;;;5077883;28;20305;-82
2022/09/26 01:10:40;;;;;;;1.33;0.80;;;12.80;99.90;;;;;;5057486;28;20236;-81
2022/09/26 01:13:07;;;;;;;1.00;0.90;;;12.80;99.90;;;;;;5074188;28;20704;-81
2022/09/26 01:15:35;;;;;;;0.53;0.40;;;12.80;99.90;;;;;;5058362;28;20331;-83
2022/09/26 01:18:02;;;;;;;0.83;0.50;;;12.80;99.90;;;;;;5072230;28;20293;-83
2022/09/26 01:20:55;;;;;;;0.50;0.50;;;12.70;99.90;;;;;;5075087;28;20228;-82
2022/09/26 01:23:40;;;;;;;0.40;0.40;;;12.70;99.90;;;;;;5073405;28;20227;-82
2022/09/26 01:26:21;;;;;;;1.27;0.70;;;12.70;99.90;;;;;;5073129;28;20237;-83
2022/09/26 01:28:56;;;;;;;1.27;0.63;;;12.70;99.90;;;;;;5073960;28;20185;-81
2022/09/26 01:31:31;;;;;;;1.97;0.70;;;12.70;99.90;;;;;;5074053;28;20273;-82
2022/09/26 01:34:13;;;;;;;0.40;0.40;;;12.60;99.90;;;;;;5072240;28;20220;-82
2022/09/26 01:36:44;;;;;;;0.60;0.60;;;12.60;99.90;;;;;;5074368;28;20319;-81
2022/09/26 01:39:29;;;;;;;0.87;0.60;;;12.60;99.90;;;;;;5073028;28;20220;-81
2022/09/26 01:42:18;;;;;;;0.63;0.63;;;12.50;99.90;;;;;;5072120;28;20209;-81
2022/09/26 01:45:08;;;;;;;2.43;0.87;;;12.50;99.90;;;;;;5072633;28;20285;-84
2022/09/26 01:47:37;;;;;;;2.83;0.70;;;12.50;99.90;;;;;;5072148;28;20219;-82
2022/09/26 01:50:15;;;;;;;1.83;0.70;;;12.50;99.90;;;;;;5074128;28;20185;-81
2022/09/26 01:53:13;;;;;;;0.73;0.73;;;12.50;99.90;;;;;;5073044;28;20180;-81
2022/09/26 01:55:49;;;;;;;1.37;0.73;;;12.50;99.90;;;;;;5014238;28;20308;-83
2022/09/26 01:58:38;;;;;;;0.80;0.73;;;12.50;99.90;;;;;;5074612;28;20315;-82
2022/09/26 02:01:09;;;;;;;0.67;0.63;;;12.40;99.90;;;;;;5071994;28;20354;-83
2022/09/26 02:03:40;;;;;;;0.80;0.67;;;12.30;99.90;;;;;;5072593;28;20745;-81
2022/09/26 02:06:15;;;;;;;4.33;0.90;;;12.30;99.90;;;;;;5073603;28;20708;-83
2022/09/26 02:08:51;;;;;;;2.77;0.90;;;12.30;99.90;;;;;;5074321;28;20614;-82
2022/09/26 02:11:20;;;;;;;3.80;0.90;;;12.30;99.90;;;;;;5073968;28;20213;-82
2022/09/26 02:13:57;;;;;;;0.67;0.67;;;12.30;99.90;;;;;;5073355;28;20184;-81
2022/09/26 02:16:38;;;;;;;0.80;0.80;;;12.30;99.90;;;;;;5073136;28;20209;-81
2022/09/26 02:19:19;;;;;;;6.00;1.10;;;12.30;99.90;;;;;;5073461;28;20378;-81
2022/09/26 02:21:45;;;;;;;1.07;0.80;;;12.30;99.90;;;;;;5073502;28;20220;-81
2022/09/26 02:24:11;;;;;;;1.20;1.07;;;12.30;99.90;;;;;;5071389;28;20331;-81
2022/09/26 02:26:37;;;;;;;0.87;0.77;;;12.30;99.90;;;;;;5073442;28;20243;-82
2022/09/26 02:29:05;;;;;;;1.23;1.00;;;12.30;99.90;;;;;;5073622;28;20181;-82
2022/09/26 02:31:37;;;;;;;2.53;1.20;;;12.30;99.90;;;;;;5072376;28;20201;-81
2022/09/26 02:34:03;;;;;;;0.70;0.70;;;12.30;99.90;;;;;;5074052;28;20303;-82
2022/09/26 02:36:33;;;;;;;0.97;0.90;;;12.30;99.90;;;;;;5055958;28;20220;-81
2022/09/26 02:39:00;;;;;;;3.90;1.10;;;12.30;99.90;;;;;;5056728;28;20213;-82
2022/09/26 02:41:34;;;;;;;2.00;1.53;;;12.30;99.90;;;;;;5071892;28;20216;-81
2022/09/26 02:44:12;;;;;;;1.40;0.70;;;12.30;99.90;;;;;;5072572;28;20199;-81
2022/09/26 02:46:48;;;;;;;1.57;1.27;;;12.30;99.90;;;;;;5071108;28;20199;-82
2022/09/26 02:49:51;;;;;;;1.37;1.10;;;12.30;99.90;;;;;;5069860;28;20232;-84
2022/09/26 02:52:39;;;;;;;2.47;1.13;;;12.30;99.90;;;;;;5074877;28;20248;-81
2022/09/26 02:55:25;;;;;;;4.80;1.77;;;12.30;99.90;;;;;;5071665;28;20751;-82
2022/09/26 02:58:35;;;;;;;2.47;1.47;;;12.30;99.90;;;;;;5074181;28;20219;-82
2022/09/26 03:01:24;;;;;;;0.80;0.80;;;12.30;99.90;;;;;;5072107;28;20232;-80
2022/09/26 03:04:03;;;;;;;0.90;0.90;;;12.30;99.90;;;;;;5070545;28;21122;-83
2022/09/26 03:06:34;;;;;;;2.20;1.40;;;12.40;99.90;;;;;;5086683;28;20227;-79
2022/09/26 03:09:02;;;;;;;1.40;1.30;;;12.40;99.90;;;;;;5072351;28;21074;-82
2022/09/26 03:11:29;;;;;;;1.03;0.93;;;12.40;99.90;;;;;;5071723;28;20260;-81
2022/09/26 03:13:56;;;;;;;1.97;1.00;;;12.40;99.90;;;;;;5072579;28;20224;-81
2022/09/26 03:16:25;;;;;;;4.33;1.53;;;12.40;99.90;;;;;;5070283;28;20551;-81
2022/09/26 03:19:01;;;;;;;1.20;1.10;;;12.50;99.90;;;;;;5069960;28;20212;-83
2022/09/26 03:21:27;;;;;;;2.40;1.00;;;12.50;99.90;;;;;;5072787;28;20217;-81
2022/09/26 03:23:56;;;;;;;1.03;1.00;;;12.40;99.90;;;;;;5070705;28;20216;-82
2022/09/26 03:26:26;;;;;;;1.27;0.93;;;12.50;99.90;;;;;;5070629;28;20216;-80
2022/09/26 03:28:52;;;;;;;1.77;1.47;;;12.50;99.90;;;;;;5073278;28;20185;-81
2022/09/26 03:31:21;;;;;;;5.20;1.67;;;12.50;99.90;;;;;;5071415;28;20228;-81
2022/09/26 03:33:47;;;;;;;1.50;1.23;;;12.50;99.90;;;;;;5053048;28;20243;-81
2022/09/26 03:36:13;;;;;;;1.80;1.50;;;12.50;99.90;;;;;;5071338;28;20217;-81
2022/09/26 03:38:39;;;;;;;1.73;1.63;;;12.50;99.90;;;;;;5054357;28;20677;-81
2022/09/26 03:41:06;;;;;;;1.20;1.10;;;12.50;99.90;;;;;;5073601;28;20189;-80
2022/09/26 03:43:32;;;;;;;2.17;1.03;;;12.50;99.90;;;;;;5075379;28;20246;-81
2022/09/26 03:46:03;;;;;;;2.70;1.67;;;12.60;99.90;;;;;;5072731;28;20209;-81
2022/09/26 03:48:29;;;;;;;1.70;1.60;;;12.60;99.90;;;;;;5075492;28;20235;-81
2022/09/26 03:50:54;;;;;;;14.33;1.93;;;12.60;99.90;;;;;;5058522;28;20283;-82
2022/09/26 03:53:20;;;;;;;3.87;1.83;;;12.60;99.90;;;;;;5076820;28;20958;-80
2022/09/26 03:55:46;;;;;;;1.57;1.27;;;12.60;99.90;;;;;;5060335;28;20246;-80
2022/09/26 03:58:11;;;;;;;3.60;1.27;;;12.60;99.90;;;;;;5058433;28;20244;-81
2022/09/26 04:00:38;;;;;;;1.30;1.20;;;12.60;99.90;;;;;;5056708;28;20224;-82
2022/09/26 04:03:04;;;;;;;0.93;0.70;;;12.60;99.90;;;;;;5056614;28;20582;-83
2022/09/26 04:05:30;;;;;;;1.73;1.40;;;12.60;99.90;;;;;;5076838;28;20228;-81
2022/09/26 04:07:58;;;;;;;4.00;1.23;;;12.70;99.90;;;;;;5055913;28;20184;-81
2022/09/26 04:10:24;;;;;;;4.30;1.57;;;12.70;99.90;;;;;;5076134;28;20328;-82
2022/09/26 04:12:50;;;;;;;1.90;1.30;;;12.70;99.90;;;;;;5076298;28;20715;-81
2022/09/26 04:15:16;;;;;;;3.70;1.40;;;12.70;99.90;;;;;;5056516;28;20788;-82
2022/09/26 04:17:41;;;;;;;1.17;1.00;;;12.80;99.90;;;;;;5072149;28;20213;-83
2022/09/26 04:20:08;;;;;;;2.37;1.77;;;12.80;99.90;;;;;;5073808;28;20201;-81
2022/09/26 04:22:34;;;;;;;2.63;1.70;;;12.80;99.90;;;;;;5058345;28;20188;-82
2022/09/26 04:25:00;;;;;;;0.70;0.70;;;12.80;99.90;;;;;;5071478;28;20216;-80
2022/09/26 04:27:27;;;;;;;2.80;1.53;;;12.90;99.90;;;;;;5055173;28;20251;-80
2022/09/26 04:29:55;;;;;;;1.57;1.23;;;12.80;99.90;;;;;;5074967;28;20212;-84
2022/09/26 04:32:22;;;;;;;5.17;1.50;;;12.90;99.90;;;;;;5060131;28;20239;-81
2022/09/26 04:34:48;;;;;;;2.03;1.43;;;12.90;99.90;;;;;;5076102;28;20563;-79
2022/09/26 04:37:14;;;;;;;1.70;1.30;;;12.90;99.90;;;;;;5055735;28;20216;-81
2022/09/26 04:39:40;;;;;;;2.27;1.87;;;12.90;99.90;;;;;;5055876;28;20336;-81
2022/09/26 04:42:06;;;;;;;2.50;1.20;;;12.90;99.90;;;;;;5070259;28;20278;-81
2022/09/26 04:44:32;;;;;;;1.60;1.50;;;12.90;99.90;;;;;;5056047;28;20220;-81
2022/09/26 04:46:58;;;;;;;1.50;1.40;;;12.90;99.90;;;;;;5070632;28;20187;-81
2022/09/26 04:49:24;;;;;;;1.90;1.63;;;12.90;99.90;;;;;;5074203;28;20189;-83
2022/09/26 04:51:50;;;;;;;4.50;1.57;;;12.90;99.90;;;;;;5041045;28;20741;-84
2022/09/26 04:54:16;;;;;;;2.03;1.60;;;12.80;99.90;;;;;;5074520;28;20240;-84
2022/09/26 04:56:42;;;;;;;1.63;1.40;;;12.90;99.90;;;;;;5074252;28;21084;-83
2022/09/26 04:59:08;;;;;;;1.70;1.50;;;12.80;99.90;;;;;;5057684;28;20669;-83
2022/09/26 05:01:34;;;;;;;1.27;0.97;;;12.80;99.90;;;;;;5074392;28;20278;-83
2022/09/26 05:03:59;;;;;;;6.33;1.57;;;12.80;99.90;;;;;;5076876;28;20247;-83
2022/09/26 05:06:25;;;;;;;4.33;1.80;;;12.80;99.90;;;;;;5060092;28;20217;-85
2022/09/26 05:08:51;;;;;;;2.13;1.23;;;12.80;99.90;;;;;;5060274;28;20217;-83
2022/09/26 05:11:20;;;;;;;3.50;1.57;;;12.80;99.90;;;;;;5057036;28;20224;-84
2022/09/26 05:13:50;;;;;;;1.67;1.10;;;12.80;99.90;;;;;;5076468;28;20185;-83
2022/09/26 05:16:17;;;;;;;1.30;1.20;;;12.80;99.90;;;;;;5074287;28;20277;-83
2022/09/26 05:18:43;;;;;;;1.20;1.10;;;12.80;99.90;;;;;;5073429;28;20302;-82
2022/09/26 05:21:09;;;;;;;2.63;2.37;;;12.70;99.90;;;;;;5056695;28;20220;-81
2022/09/26 05:26:45;;;;;;;1.30;1.17;;;12.70;99.90;;;;;;5076726;28;20220;-84
2022/09/26 05:29:11;;;;;;;3.37;0.83;;;12.70;99.90;;;;;;5089159;28;20293;-84
2022/09/26 05:31:37;;;;;;;1.40;0.97;;;12.70;99.90;;;;;;5076909;28;20205;-83
2022/09/26 05:34:09;;;;;;;4.57;1.30;;;12.70;99.90;;;;;;5071384;28;20232;-83
2022/09/26 05:36:35;;;;;;;1.10;1.00;;;12.70;99.90;;;;;;5073463;28;20217;-85
2022/09/26 05:39:02;;;;;;;1.33;1.17;;;12.70;99.90;;;;;;5072256;28;20288;-83
2022/09/26 05:41:32;;;;;;;0.80;0.57;;;12.70;99.90;;;;;;5072597;28;20308;-84
2022/09/26 05:43:58;;;;;;;1.43;1.33;;;12.70;99.90;;;;;;5070712;28;20271;-84
2022/09/26 05:46:25;;;;;;;1.87;1.77;;;12.70;99.90;;;;;;5076693;28;20729;-84
2022/09/26 05:48:51;;;;;;;1.57;1.47;;;12.70;99.90;;;;;;5074016;28;20229;-81
2022/09/26 05:51:19;;;;;;;2.13;0.90;;;12.70;99.90;;;;;;5054530;28;20278;-83
2022/09/26 05:53:46;;;;;;;1.23;1.13;;;12.70;99.90;;;;;;5074852;28;20235;-85
2022/09/26 05:56:14;;;;;;;0.83;0.83;;;12.70;99.90;;;;;;5076315;28;20228;-83
2022/09/26 05:58:40;;;;;;;4.30;1.20;;;12.70;99.90;;;;;;5074990;28;20264;-84
2022/09/26 06:01:12;;;;;;;0.90;0.70;;;12.70;99.90;;;;;;5073735;28;20251;-83
2022/09/26 06:03:40;;;;;;;3.13;1.40;;;12.70;99.90;;;;;;5072788;28;20228;-86
2022/09/26 06:06:12;;;;;;;3.37;1.47;;;12.70;99.90;;;;;;5072540;28;20209;-85
2022/09/26 06:08:39;;;;;;;1.50;0.97;;;12.70;99.90;;;;;;5073647;28;20212;-85
2022/09/26 06:11:16;;;;;;;4.20;1.00;;;12.70;99.90;;;;;;5073384;28;20213;-85
2022/09/26 06:13:44;;;;;;;3.20;0.83;;;12.70;99.90;;;;;;5074754;28;20218;-84
2022/09/26 06:16:20;;;;;;;1.40;1.00;;;12.60;99.90;;;;;;5073092;28;20221;-85
2022/09/26 06:18:48;;;;;;;1.57;1.20;;;12.70;99.90;;;;;;5059529;28;20353;-86
2022/09/26 06:21:16;;;;;;;1.67;1.37;;;12.70;99.90;;;;;;5072082;28;20339;-85
2022/09/26 06:23:42;;;;;;;1.70;1.60;;;12.70;99.90;;;;;;5073670;28;20217;-86
2022/09/26 06:26:13;;;;;;;0.90;0.80;;;12.70;99.90;;;;;;5058894;28;20216;-85
2022/09/26 06:28:39;;;;;;;10.53;1.73;;;12.70;99.90;;;;;;5076867;28;20259;-87
2022/09/26 06:31:17;;;;;;;1.17;1.07;;;12.70;99.90;;;;;;5061379;28;20351;-86
2022/09/26 06:33:43;;;;;;;1.63;1.30;;;12.70;99.90;;;;;;5075525;28;20219;-89
2022/09/26 06:36:10;;;;;;;1.30;1.20;;;12.80;99.90;;;;;;5060003;28;20221;-88
2022/09/26 06:38:37;;;;;;;3.30;1.27;;;12.80;99.90;;;;;;5076341;28;20983;-88
2022/09/26 06:41:03;;;;;;;1.47;1.10;;;12.90;99.90;;;;;;5090537;28;20193;-87
2022/09/26 06:43:30;;;;;;;4.07;1.37;;;12.90;99.90;;;;;;5075807;28;20231;-88
2022/09/26 06:45:56;;;;;;;1.43;1.33;;;12.90;99.90;;;;;;5074054;28;20252;-87
2022/09/26 06:48:23;;;;;;;2.83;1.40;;;12.80;99.90;;;;;;5075683;28;20251;-88
2022/09/26 06:50:58;;;;;;;1.07;0.97;;;12.90;99.90;;;;;;5068151;28;20236;-86
2022/09/26 06:53:24;;;;;;;1.77;1.57;;;12.90;99.90;;;;;;5081649;28;20212;-86
2022/09/26 06:55:50;;;;;;;3.80;1.20;;;12.90;99.90;;;;;;5043834;28;20552;-88
2022/09/26 06:58:16;;;;;;;6.93;1.77;;;12.90;99.90;;;;;;5058110;28;20218;-88
2022/09/26 07:00:42;;;;;;;1.70;1.10;;;12.90;99.90;;;;;;5059627;28;20273;-86
2022/09/26 07:03:08;;;;;;;1.07;1.00;;;12.90;99.90;;;;;;5072808;28;20218;-86
2022/09/26 07:05:34;;;;;;;2.20;1.20;;;12.90;99.90;;;;;;5058357;28;20208;-87
2022/09/26 07:08:01;;;;;;;0.80;0.80;;;12.90;99.90;;;;;;5042435;28;20184;-88
2022/09/26 07:10:29;;;;;;;1.73;1.40;;;12.90;99.90;;;;;;5076265;28;20263;-87
2022/09/26 07:13:01;;;;;;;1.60;1.37;;;13.00;99.90;;;;;;5072257;28;20216;-87
2022/09/26 07:15:32;;;;;;;2.50;2.20;;;13.00;99.90;;;;;;5076856;28;20248;-87
2022/09/26 07:18:01;;;;;;;1.07;0.97;;;13.10;99.90;;;;;;5079495;28;20304;-87
2022/09/26 07:20:30;;;;;;;4.23;1.47;;;13.10;99.90;;;;;;5062804;28;20752;-86
2022/09/26 07:23:00;;;;;;;2.53;1.70;;;13.10;99.90;;;;;;5078520;28;20203;-81
2022/09/26 07:25:26;;;;;;;1.90;1.47;;;13.20;99.90;;;;;;5078854;28;20193;-85
2022/09/26 07:27:52;;;;;;;2.77;1.70;;;13.30;99.90;;;;;;5044876;28;20224;-87
2022/09/26 07:30:18;;;;;;;2.30;1.27;;;13.30;99.90;;;;;;5061200;28;20235;-88
2022/09/26 07:32:46;;;;;;;2.93;1.83;;;13.30;99.90;;;;;;5061016;28;20235;-87
2022/09/26 07:35:14;;;;;;;0.70;0.70;;;13.30;99.90;;;;;;5079131;28;20239;-85
2022/09/26 07:37:41;;;;;;;1.97;1.63;;;13.40;99.90;;;;;;5077568;28;20188;-84
2022/09/26 07:40:08;;;;;;;5.87;1.20;;;13.50;99.90;;;;;;5061379;28;20224;-85
2022/09/26 07:42:33;;;;;;;1.00;0.87;;;13.50;99.90;;;;;;5078447;28;20217;-87
2022/09/26 07:44:59;;;;;;;3.07;1.83;;;13.50;99.90;;;;;;5075513;28;20217;-86
2022/09/26 07:50:13;;;;;;;3.10;1.07;;;13.50;99.90;;;;;;5078588;28;20631;-85
2022/09/26 07:52:43;;;;;;;2.00;1.47;;;13.50;99.90;;;;;;5077270;28;20181;-85
2022/09/26 07:55:12;;;;;;;1.53;1.30;;;13.50;99.90;;;;;;5078025;28;21073;-85
2022/09/26 07:57:38;;;;;;;2.23;1.73;;;13.50;99.90;;;;;;5077296;28;20267;-84
2022/09/26 08:00:11;;;;;;;1.40;1.13;;;13.60;99.90;;;;;;5077945;28;20574;-85
2022/09/26 08:02:43;;;;;;;1.33;1.20;;;13.60;99.90;;;;;;5076931;28;20213;-84
2022/09/26 08:05:10;;;;;;;3.23;1.60;;;13.60;99.90;;;;;;5073889;28;20222;-84
2022/09/26 08:07:37;;;;;;;3.20;2.03;;;13.60;99.90;;;;;;5076998;28;20702;-85
2022/09/26 08:10:05;;;;;;;5.03;1.40;;;13.50;99.90;;;;;;5076198;28;20259;-85
2022/09/26 08:12:37;;;;;;;1.37;1.27;;;13.50;99.90;;;;;;5078077;28;20664;-85
2022/09/26 08:15:05;;;;;;;1.30;1.20;;;13.60;99.90;;;;;;5073813;28;20224;-85
2022/09/26 08:17:32;;;;;;;4.10;1.30;;;13.50;99.90;;;;;;5078195;28;20222;-85
2022/09/26 08:19:59;;;;;;;3.80;1.70;;;13.50;99.90;;;;;;5078308;28;20190;-84
2022/09/26 08:22:25;;;;;;;2.50;1.13;;;13.50;99.90;;;;;;5075243;28;20208;-83
2022/09/26 08:24:52;;;;;;;1.43;1.33;;;13.30;99.90;;;;;;5076837;28;20220;-85
2022/09/26 08:27:18;;;;;;;2.20;2.10;;;13.30;99.90;;;;;;5058151;28;20225;-86
2022/09/26 08:29:47;;;;;;;2.17;1.17;;;13.20;99.90;;;;;;5077793;28;20526;-85
2022/09/26 08:32:14;;;;;;;5.07;1.97;;;13.10;99.90;;;;;;5059616;28;20763;-86
2022/09/26 08:34:40;;;;;;;1.50;1.40;;;13.10;99.90;;;;;;5078278;28;20200;-85
2022/09/26 08:37:06;;;;;;;1.80;0.97;;;13.20;99.90;;;;;;5075884;28;20220;-84
2022/09/26 08:39:32;;;;;;;6.13;2.40;;;13.10;99.90;;;;;;5077050;28;20221;-84
2022/09/26 08:42:06;;;;;;;2.10;1.37;;;13.00;99.90;;;;;;5077700;28;20726;-85
2022/09/26 08:44:55;;;;;;;2.50;1.57;;;12.90;99.90;;;;;;5075749;28;20217;-84
2022/09/26 08:47:22;;;;;;;3.63;1.80;;;12.80;99.90;;;;;;5048050;28;20221;-86
2022/09/26 08:49:58;;;;;;;2.83;1.37;;;12.80;99.90;;;;;;5078675;28;20646;-84
2022/09/26 08:52:29;;;;;;;1.90;1.60;;;12.80;99.90;;;;;;5076244;28;20232;-83
2022/09/26 08:55:04;;;;;;;9.03;1.33;;;12.80;99.90;;;;;;5075499;28;20232;-83
2022/09/26 08:57:37;;;;;;;1.30;1.07;;;12.80;99.90;;;;;;5073419;28;20220;-84
2022/09/26 09:00:20;;;;;;;1.57;1.47;;;12.70;99.90;;;;;;5074839;28;20987;-83
2022/09/26 09:03:23;;;;;;;2.27;1.37;;;12.80;99.90;;;;;;5074670;28;20212;-84
2022/09/26 09:06:03;;;;;;;3.97;1.33;;;12.90;99.90;;;;;;5076394;28;20232;-84
2022/09/26 09:08:39;;;;;;;4.10;1.90;;;12.90;99.90;;;;;;5074755;28;20209;-85
2022/09/26 09:11:40;;;;;;;2.17;1.67;;;13.10;99.90;;;;;;5072401;28;20212;-84
2022/09/26 09:14:30;;;;;;;4.67;2.30;;;13.10;99.90;;;;;;5071604;28;20185;-85
2022/09/26 09:17:24;;;;;;;7.03;1.57;;;13.10;99.90;;;;;;5073092;28;20173;-84
2022/09/26 09:20:02;;;;;;;1.90;1.60;;;13.00;99.90;;;;;;5081506;28;20628;-84
2022/09/26 09:22:31;;;;;;;3.80;2.33;;;13.00;99.90;;;;;;5070995;28;20681;-86
2022/09/26 09:25:16;;;;;;;5.53;1.70;;;13.00;99.90;;;;;;5073581;28;20223;-86
2022/09/26 09:27:56;;;;;;;2.20;2.00;;;13.10;99.90;;;;;;5070497;28;20709;-84
2022/09/26 09:30:23;;;;;;;1.43;1.33;;;13.10;99.90;;;;;;5069725;28;20209;-83
2022/09/26 09:33:15;;;;;;;1.63;1.53;;;13.00;99.90;;;;;;5080386;28;20216;-83
2022/09/26 09:35:56;;;;;;;2.03;1.60;;;13.00;99.90;;;;;;5090040;28;20220;-85
2022/09/26 09:38:30;;;;;;;2.40;1.93;;;13.00;99.90;;;;;;5071775;28;20243;-85
2022/09/26 09:41:08;;;;;;;1.27;1.17;;;13.10;99.90;;;;;;5074635;28;20185;-83
2022/09/26 09:43:36;;;;;;;2.70;2.10;;;13.00;99.90;;;;;;5074977;28;20230;-92
2022/09/26 09:46:09;;;;;;;2.83;2.00;;;13.10;99.90;;;;;;5075569;28;20672;-86
2022/09/26 09:48:34;;;;;;;2.80;2.00;;;13.00;99.90;;;;;;5088642;28;20686;-86
2022/09/26 09:51:20;;;;;;;3.27;2.00;;;13.10;99.90;;;;;;5055604;28;20835;-88
2022/09/26 09:54:39;;;;;;;1.33;1.23;;;13.00;99.90;;;;;;5069901;28;20217;-88
2022/09/26 09:57:28;;;;;;;3.23;2.93;;;13.00;99.90;;;;;;5046135;28;20224;-87
2022/09/26 10:00:16;;;;;;;4.83;1.60;;;13.00;99.90;;;;;;5074590;28;20585;-87
2022/09/26 10:03:10;;;;;;;2.00;1.87;;;13.00;99.90;;;;;;5070979;28;20240;-88
2022/09/26 10:05:50;;;;;;;2.10;1.60;;;13.00;99.90;;;;;;5069430;28;20375;-87
2022/09/26 10:08:42;;;;;;;2.03;1.83;;;12.90;99.90;;;;;;5074554;28;20224;-88
2022/09/26 10:11:29;;;;;;;6.10;1.90;;;13.00;99.90;;;;;;5053852;28;20762;-86
2022/09/26 10:14:00;;;;;;;3.30;1.77;;;13.00;99.90;;;;;;5069840;28;20189;-85
2022/09/26 10:16:25;;;;;;;2.50;1.80;;;13.00;99.90;;;;;;5072814;28;20277;-86
2022/09/26 10:19:05;;;;;;;1.57;1.23;;;13.00;99.90;;;;;;5076289;28;20635;-86
2022/09/26 10:21:39;;;;;;;5.33;1.40;;;12.90;99.90;;;;;;5069291;28;20248;-85
2022/09/26 10:24:33;;;;;;;2.90;1.87;;;12.90;99.90;;;;;;5068464;28;20232;-85
2022/09/26 10:27:22;;;;;;;1.80;1.60;;;12.90;99.90;;;;;;5069099;28;20251;-87
2022/09/26 10:29:59;;;;;;;1.47;1.33;;;12.90;99.90;;;;;;5071484;28;20217;-86
2022/09/26 10:32:26;;;;;;;0.77;0.77;;;12.90;99.90;;;;;;5072346;28;20246;-87
2022/09/26 10:35:27;;;;;;;3.63;1.50;;;12.90;99.90;;;;;;5071762;28;20177;-84
2022/09/26 10:37:59;;;;;;;1.87;1.73;;;12.90;99.90;;;;;;5073014;28;20215;-87
2022/09/26 10:40:46;;;;;;;2.37;2.13;;;12.90;99.90;;;;;;5069504;28;20679;-87
2022/09/26 10:43:27;;;;;;;1.73;1.60;;;12.90;99.90;;;;;;5069446;28;20271;-87
2022/09/26 10:45:59;;;;;;;4.27;1.80;;;12.90;99.90;;;;;;5068754;28;20259;-85
2022/09/26 10:48:56;;;;;;;1.97;1.70;;;12.90;99.90;;;;;;5070831;28;20271;-85
2022/09/26 10:51:26;;;;;;;1.57;1.47;;;13.00;99.90;;;;;;5059660;28;20225;-86
2022/09/26 10:53:58;;;;;;;2.83;2.20;;;13.20;99.90;;;;;;5075668;28;20670;-86
2022/09/26 10:56:28;;;;;;;3.03;1.83;;;13.20;99.90;;;;;;5074909;28;20228;-85
2022/09/26 10:59:02;;;;;;;2.10;1.87;;;13.20;99.90;;;;;;5076658;28;20173;-84
2022/09/26 11:01:31;;;;;;;3.10;2.00;;;13.30;99.90;;;;;;5074664;28;20216;-86
2022/09/26 11:04:10;;;;;;;9.27;3.03;;;13.30;99.90;;;;;;5075197;28;20316;-86
2022/09/26 11:06:42;;;;;;;2.47;2.10;;;13.50;99.90;;;;;;5095213;28;20244;-84
2022/09/26 11:09:10;;;;;;;1.27;1.17;;;13.70;99.90;;;;;;5079306;28;20246;-85
2022/09/26 11:11:38;;;;;;;3.63;3.17;;;13.80;99.90;;;;;;5060775;28;20323;-86
2022/09/26 11:14:08;;;;;;;3.23;2.80;;;14.20;99.90;;;;;;5075241;28;20274;-85
2022/09/26 11:16:43;;;;;;;3.33;2.33;;;14.50;99.90;;;;;;5076914;28;20211;-86
2022/09/26 11:19:35;;;;;;;2.33;2.13;;;14.50;99.90;;;;;;5075731;28;20225;-87
2022/09/26 11:22:13;;;;;;;1.53;1.43;;;14.10;99.90;;;;;;5076081;28;20224;-86
2022/09/26 11:24:50;;;;;;;2.37;1.37;;;14.10;99.90;;;;;;5078112;28;20260;-86
2022/09/26 11:27:44;;;;;;;1.90;1.70;;;14.00;99.90;;;;;;5074564;28;20216;-87
2022/09/26 11:30:19;;;;;;;1.67;1.47;;;14.00;99.90;;;;;;5071706;28;20331;-82
2022/09/26 11:32:55;;;;;;;2.47;1.90;;;13.90;99.90;;;;;;5070358;28;20689;-83
2022/09/26 11:35:45;;;;;;;1.53;1.43;;;14.00;99.90;;;;;;5069716;28;20209;-84
2022/09/26 11:38:34;;;;;;;2.20;1.80;;;13.90;99.90;;;;;;5073665;28;20181;-86
2022/09/26 11:41:12;;;;;;;2.57;1.73;;;14.10;99.90;;;;;;5074422;28;20201;-86
2022/09/26 11:43:51;;;;;;;2.60;1.93;;;14.10;99.90;;;;;;5071323;28;20189;-85
2022/09/26 11:46:45;;;;;;;2.20;2.00;;;14.10;99.90;;;;;;5075984;28;20206;-86
2022/09/26 11:49:25;;;;;;;4.33;1.90;;;14.10;99.90;;;;;;5072245;28;20228;-85
2022/09/26 11:52:22;;;;;;;2.03;1.50;;;14.10;99.90;;;;;;5072110;28;20232;-84
2022/09/26 11:54:57;;;;;;;1.90;1.80;;;14.10;99.90;;;;;;5074363;28;20463;-83
2022/09/26 11:58:01;;;;;;;1.83;1.57;;;14.10;99.90;;;;;;5073051;28;20220;-81
2022/09/26 12:00:41;;;;;;;2.33;1.53;;;14.10;99.90;;;;;;5046303;28;20709;-83
2022/09/26 12:03:32;;;;;;;1.07;0.93;;;14.10;99.90;;;;;;5071785;28;20737;-82
2022/09/26 12:06:00;;;;;;;1.73;1.53;;;14.20;99.90;;;;;;5072262;28;20222;-83
2022/09/26 12:08:28;;;;;;;3.23;2.43;;;14.30;99.90;;;;;;5074291;28;20292;-84
2022/09/26 12:10:55;;;;;;;4.50;2.10;;;14.30;99.90;;;;;;5076630;28;20247;-83
2022/09/26 12:13:36;;;;;;;2.10;1.47;;;14.30;99.90;;;;;;5070744;28;20272;-84
2022/09/26 12:16:02;;;;;;;1.13;0.87;;;14.30;99.90;;;;;;5077108;28;20220;-85
2022/09/26 12:18:52;;;;;;;2.70;1.43;;;14.30;99.90;;;;;;5075864;28;20779;-85
2022/09/26 12:21:24;;;;;;;3.67;1.60;;;14.30;99.90;;;;;;5087753;28;20225;-86
2022/09/26 12:23:53;;;;;;;0.90;0.80;;;14.30;99.90;;;;;;5076045;28;20227;-84
2022/09/26 12:26:52;;;;;;;1.83;1.07;;;14.30;99.90;;;;;;5071846;28;20213;-84
2022/09/26 12:29:27;;;;;;;3.77;1.47;;;14.40;99.90;;;;;;5074664;28;20661;-84
2022/09/26 12:32:34;;;;;;;1.83;1.10;;;14.70;99.90;;;;;;5075303;28;20546;-84
2022/09/26 12:35:36;;;;;;;7.63;1.33;;;15.10;99.90;;;;;;5050437;28;20228;-85
2022/09/26 12:38:27;;;;;;;2.13;1.23;;;15.10;99.90;;;;;;5081036;28;20193;-85
2022/09/26 12:41:24;;;;;;;1.37;0.60;;;15.10;99.90;;;;;;5072551;28;20304;-84
2022/09/26 12:43:50;;;;;;;2.27;1.17;;;14.90;99.90;;;;;;5036881;28;20279;-86
2022/09/26 12:46:47;;;;;;;3.27;1.47;;;15.00;99.90;;;;;;5070144;28;20304;-87
2022/09/26 12:49:28;;;;;;;1.07;0.83;;;15.10;99.90;;;;;;5071180;28;20219;-85
2022/09/26 12:52:05;;;;;;;1.40;1.10;;;15.20;99.90;;;;;;5071717;28;20256;-86
2022/09/26 12:54:43;;;;;;;6.10;0.73;;;15.20;99.90;;;;;;5072357;28;20613;-85
2022/09/26 12:57:31;;;;;;;4.03;0.80;;;15.40;99.90;;;;;;5071961;28;20224;-85
2022/09/26 13:00:10;;;;;;;4.40;1.73;;;15.50;99.90;;;;;;5070725;28;20241;-86
2022/09/26 13:03:10;;;;;;;2.87;0.90;;;15.60;99.90;;;;;;5069689;28;20259;-86
2022/09/26 13:05:54;;;;;;;6.33;1.37;;;15.70;99.90;;;;;;5070928;28;20220;-87
2022/09/26 13:08:26;;;;;;;5.80;1.33;;;15.70;99.90;;;;;;5070929;28;20221;-86
2022/09/26 13:11:11;;;;;;;4.80;1.40;;;15.90;99.90;;;;;;5073911;28;20241;-91
2022/09/26 13:13:44;;;;;;;0.60;0.60;;;16.10;99.90;;;;;;5070745;28;20220;-84
2022/09/26 13:16:24;;;;;;;8.47;1.60;;;16.00;99.90;;;;;;5075462;28;20253;-88
2022/09/26 13:19:23;;;;;;;2.60;1.20;;;15.80;99.90;;;;;;5073078;28;20221;-90
2022/09/26 13:21:58;;;;;;;3.57;1.70;;;15.80;99.90;;;;;;5065483;28;20229;-90
2022/09/26 13:24:33;;;;;;;4.37;1.40;;;15.80;99.90;;;;;;5070474;28;20365;-87
2022/09/26 13:27:14;;;;;;;4.93;0.80;;;15.90;99.90;;;;;;5089922;28;20295;-89